createdAt,value
2019-03-20T06:58:11.027Z,43.10
2019-03-20T07:00:44.857Z,45.00
2019-03-20T07:03:18.058Z,45.60
2019-03-20T07:06:24.548Z,44.90
2019-03-20T07:08:58.628Z,45.30
2019-03-20T07:11:26.265Z,45.00
2019-03-20T07:13:55.345Z,45.00
2019-03-20T07:16:25.201Z,45.10
2019-03-20T07:18:54.864Z,45.20
2019-03-20T07:21:24.258Z,45.20
2019-03-20T07:23:54.284Z,45.30
2019-03-20T07:26:23.121Z,45.40
2019-03-20T07:28:52.371Z,45.50
2019-03-20T07:31:22.560Z,45.50
2019-03-20T07:33:51.277Z,45.50
2019-03-20T07:36:20.803Z,45.50
2019-03-20T07:38:49.547Z,45.60
2019-03-20T07:41:18.694Z,45.50
2019-03-20T07:43:47.593Z,45.50
2019-03-20T07:46:16.300Z,45.50
2019-03-20T07:48:45.723Z,45.70
2019-03-20T07:51:14.640Z,45.80
2019-03-20T07:53:43.822Z,45.80
2019-03-20T07:56:12.512Z,45.80
2019-03-20T07:58:41.221Z,45.80
2019-03-20T08:01:10.422Z,45.70
2019-03-20T08:03:40.346Z,45.70
2019-03-20T08:06:09.554Z,45.60
2019-03-20T08:08:38.724Z,45.40
2019-03-20T08:11:08.961Z,45.30
2019-03-20T08:13:38.233Z,45.30
2019-03-20T08:16:07.819Z,45.30
2019-03-20T08:18:37.344Z,45.20
2019-03-20T08:21:07.628Z,45.20
2019-03-20T08:23:36.639Z,45.00
2019-03-20T08:26:06.364Z,45.10
2019-03-20T08:28:36.791Z,45.00
2019-03-20T08:31:05.878Z,44.90
2019-03-20T08:33:34.681Z,45.00
2019-03-20T08:36:04.556Z,45.00
2019-03-20T08:38:33.435Z,45.10
2019-03-20T08:41:02.260Z,45.30
2019-03-20T08:43:31.472Z,45.30
2019-03-20T08:46:00.208Z,45.30
2019-03-20T08:48:29.455Z,45.80
2019-03-20T08:51:00.403Z,44.80
2019-03-20T08:53:31.283Z,45.00
2019-03-20T08:56:00.984Z,44.80
2019-03-20T08:58:30.659Z,44.80
2019-03-20T09:01:00.452Z,44.80
2019-03-20T09:03:32.959Z,44.80
2019-03-20T09:06:01.692Z,44.70
2019-03-20T09:08:31.084Z,44.80
2019-03-20T09:10:59.772Z,44.70
2019-03-20T09:13:28.879Z,44.70
2019-03-20T09:15:57.884Z,44.60
2019-03-20T09:18:27.104Z,44.60
2019-03-20T09:20:55.989Z,44.60
2019-03-20T09:23:24.688Z,44.60
2019-03-20T09:25:54.178Z,44.60
2019-03-20T09:28:23.664Z,44.60
2019-03-20T09:30:52.811Z,45.00
2019-03-20T09:33:22.180Z,44.70
2019-03-20T09:35:51.015Z,44.70
2019-03-20T09:38:21.571Z,44.60
2019-03-20T09:40:51.166Z,44.60
2019-03-20T09:43:20.663Z,44.50
2019-03-20T09:45:50.400Z,44.50
2019-03-20T09:48:19.504Z,44.30
2019-03-20T09:50:48.997Z,45.20
2019-03-20T09:53:17.729Z,44.40
2019-03-20T09:55:47.176Z,44.70
2019-03-20T09:58:16.651Z,44.30
2019-03-20T10:00:47.107Z,44.30
2019-03-20T10:03:16.632Z,44.30
2019-03-20T10:05:45.648Z,44.30
2019-03-20T10:08:15.034Z,44.20
2019-03-20T10:10:44.582Z,44.20
2019-03-20T10:13:14.115Z,44.30
2019-03-20T10:15:44.047Z,44.30
2019-03-20T10:18:13.143Z,44.40
2019-03-20T10:20:42.141Z,44.40
2019-03-20T10:25:46.131Z,44.40
2019-03-20T10:28:16.515Z,44.40
2019-03-20T10:30:45.697Z,44.30
2019-03-20T10:33:16.591Z,44.30
2019-03-20T10:35:50.183Z,44.40
2019-03-20T10:38:12.552Z,44.50
2019-03-20T10:40:41.981Z,44.50
2019-03-20T10:43:11.025Z,44.40
2019-03-20T10:45:40.196Z,44.50
2019-03-20T10:48:09.527Z,44.50
2019-03-20T10:50:39.067Z,45.20
2019-03-20T10:53:07.744Z,44.50
2019-03-20T10:55:37.137Z,44.60
2019-03-20T10:58:06.260Z,44.50
2019-03-20T11:00:35.717Z,44.50
2019-03-20T11:03:04.764Z,44.50
2019-03-20T11:05:35.543Z,44.50
2019-03-20T11:08:04.588Z,44.60
2019-03-20T11:10:33.329Z,45.30
2019-03-20T11:13:02.541Z,44.60
2019-03-20T11:15:31.931Z,44.50
2019-03-20T11:18:01.084Z,44.50
2019-03-20T11:20:30.679Z,44.50
2019-03-20T11:22:59.422Z,44.50
2019-03-20T11:25:28.623Z,44.50
2019-03-20T11:27:57.444Z,44.60
2019-03-20T11:30:27.183Z,44.60
2019-03-20T11:32:58.094Z,44.60
2019-03-20T11:35:27.732Z,45.20
2019-03-20T11:37:56.559Z,44.60
2019-03-20T11:40:27.821Z,44.60
2019-03-20T11:42:58.391Z,44.60
2019-03-20T11:45:27.396Z,44.50
2019-03-20T11:47:56.712Z,44.60
2019-03-20T11:50:28.386Z,44.50
2019-03-20T11:52:57.809Z,44.30
2019-03-20T11:55:26.532Z,44.50
2019-03-20T11:57:56.039Z,44.50
2019-03-20T12:00:25.224Z,45.20
2019-03-20T12:02:54.419Z,44.40
2019-03-20T12:05:24.521Z,44.40
2019-03-20T12:07:53.733Z,44.40
2019-03-20T12:10:23.020Z,44.30
2019-03-20T12:12:52.315Z,44.30
2019-03-20T12:15:21.401Z,44.30
2019-03-20T12:17:50.938Z,44.30
2019-03-20T12:20:20.277Z,44.20
2019-03-20T12:22:49.811Z,44.30
2019-03-20T12:25:21.689Z,44.30
2019-03-20T12:27:50.868Z,44.30
2019-03-20T12:30:21.339Z,44.30
2019-03-20T12:32:51.131Z,44.30
2019-03-20T12:35:22.002Z,44.30
2019-03-20T12:37:51.358Z,44.40
2019-03-20T12:40:23.347Z,44.20
2019-03-20T12:42:52.525Z,44.30
2019-03-20T12:45:23.156Z,44.20
2019-03-20T12:47:51.873Z,44.20
2019-03-20T12:50:21.217Z,44.20
2019-03-20T12:52:50.312Z,44.20
2019-03-20T12:55:19.083Z,44.30
2019-03-20T12:57:48.002Z,44.30
2019-03-20T13:00:20.391Z,44.20
2019-03-20T13:02:49.170Z,44.20
2019-03-20T13:05:18.727Z,44.30
2019-03-20T13:07:47.485Z,44.30
2019-03-20T13:10:18.024Z,44.30
2019-03-20T13:12:47.191Z,44.50
2019-03-20T13:15:18.157Z,44.20
2019-03-20T13:17:47.181Z,44.30
2019-03-20T13:20:16.145Z,44.20
2019-03-20T13:22:46.895Z,44.20
2019-03-20T13:25:15.698Z,44.20
2019-03-20T13:27:44.714Z,44.20
2019-03-20T13:30:20.298Z,44.20
2019-03-20T13:32:47.983Z,44.10
2019-03-20T13:35:16.879Z,44.20
2019-03-20T13:37:46.827Z,44.00
2019-03-20T13:40:15.857Z,44.20
2019-03-20T13:42:45.027Z,44.50
2019-03-20T13:45:15.045Z,44.20
2019-03-20T13:47:43.759Z,44.20
2019-03-20T13:50:13.734Z,44.20
2019-03-20T13:52:43.073Z,44.20
2019-03-20T13:55:13.277Z,44.80
2019-03-20T13:57:42.832Z,44.20
2019-03-20T14:00:14.695Z,44.20
2019-03-20T14:02:43.912Z,44.20
2019-03-20T14:05:13.119Z,44.20
2019-03-20T14:07:41.972Z,44.20
2019-03-20T14:10:11.964Z,44.20
2019-03-20T14:12:40.689Z,44.20
2019-03-20T14:15:10.052Z,44.20
2019-03-20T14:17:39.587Z,44.20
2019-03-20T14:20:11.181Z,44.20
2019-03-20T14:22:42.018Z,44.20
2019-03-20T14:25:10.883Z,44.20
2019-03-20T14:27:40.033Z,44.90
2019-03-20T14:30:13.624Z,44.20
2019-03-20T14:32:42.410Z,44.20
2019-03-20T14:35:11.291Z,44.20
2019-03-20T14:37:40.318Z,44.20
2019-03-20T14:40:10.846Z,44.20
2019-03-20T14:42:40.195Z,44.20
2019-03-20T14:45:10.999Z,44.20
2019-03-20T14:47:42.317Z,44.30
2019-03-20T14:50:11.309Z,44.20
2019-03-20T14:52:40.483Z,44.20
2019-03-20T14:55:10.251Z,44.20
2019-03-20T14:57:39.351Z,44.20
2019-03-20T15:00:11.564Z,44.20
2019-03-20T15:02:40.328Z,44.30
2019-03-20T15:05:09.179Z,44.20
2019-03-20T15:07:38.424Z,44.30
2019-03-20T15:10:08.632Z,44.30
2019-03-20T15:12:37.512Z,44.30
2019-03-20T15:17:37.569Z,44.30
2019-03-20T15:20:07.427Z,44.30
2019-03-20T15:22:36.641Z,44.20
2019-03-20T15:25:05.601Z,44.30
2019-03-20T15:27:34.592Z,44.30
2019-03-20T15:30:04.155Z,44.20
2019-03-20T15:32:33.940Z,44.20
2019-03-20T15:35:03.098Z,44.10
2019-03-20T15:37:32.709Z,44.10
2019-03-20T15:40:01.498Z,44.10
2019-03-20T15:42:30.840Z,44.10
2019-03-20T15:44:59.852Z,44.20
2019-03-20T15:47:29.365Z,44.20
2019-03-20T15:49:58.703Z,44.20
2019-03-20T15:52:27.694Z,44.20
2019-03-20T15:54:56.432Z,44.20
2019-03-20T15:57:25.433Z,44.20
2019-03-20T15:59:54.951Z,44.30
2019-03-20T16:02:24.135Z,44.40
2019-03-20T16:04:53.819Z,44.40
2019-03-20T16:09:52.144Z,44.50
2019-03-20T16:12:21.598Z,44.40
2019-03-20T16:14:52.314Z,44.30
2019-03-20T16:17:21.911Z,44.70
2019-03-20T16:19:51.421Z,44.40
2019-03-20T16:22:20.653Z,44.30
2019-03-20T16:24:49.769Z,44.30
2019-03-20T16:27:19.188Z,44.40
2019-03-20T16:29:49.443Z,44.20
2019-03-20T16:32:18.812Z,44.20
2019-03-20T16:34:48.201Z,44.20
2019-03-20T16:37:17.352Z,44.20
2019-03-20T16:39:46.036Z,44.30
2019-03-20T16:42:15.148Z,44.30
2019-03-20T16:44:44.356Z,44.30
2019-03-20T16:47:13.065Z,44.40
2019-03-20T16:49:42.460Z,44.30
2019-03-20T16:52:11.272Z,44.30
2019-03-20T16:54:39.990Z,44.30
2019-03-20T16:57:09.263Z,44.30
2019-03-20T16:59:38.721Z,44.30
2019-03-20T17:02:07.855Z,44.20
2019-03-20T17:04:36.863Z,44.20
2019-03-20T17:07:06.072Z,44.20
2019-03-20T17:09:34.861Z,44.30
2019-03-20T17:12:06.384Z,44.30
2019-03-20T17:14:35.295Z,44.30
2019-03-20T17:17:04.576Z,44.30
2019-03-20T17:19:33.835Z,44.30
2019-03-20T17:22:02.900Z,44.30
2019-03-20T17:24:32.613Z,44.30
2019-03-20T17:27:01.629Z,44.30
2019-03-20T17:29:30.407Z,44.30
2019-03-20T17:31:59.847Z,44.30
2019-03-20T17:34:30.585Z,44.30
2019-03-20T17:36:57.729Z,44.30
2019-03-20T17:39:26.848Z,44.40
2019-03-20T17:41:55.852Z,44.30
2019-03-20T17:44:24.961Z,44.30
2019-03-20T17:46:54.148Z,44.30
2019-03-20T17:49:23.474Z,44.40
2019-03-20T17:51:52.680Z,44.40
2019-03-20T17:54:21.685Z,44.40
2019-03-20T17:56:50.811Z,44.40
2019-03-20T17:59:22.373Z,44.30
2019-03-20T18:01:51.874Z,44.40
2019-03-20T18:04:21.380Z,44.30
2019-03-20T18:06:50.571Z,44.30
2019-03-20T18:09:20.694Z,44.30
2019-03-20T18:11:49.707Z,44.30
2019-03-20T18:14:18.723Z,44.40
2019-03-20T18:16:47.915Z,44.40
2019-03-20T18:19:17.375Z,44.30
2019-03-20T18:21:46.374Z,44.40
2019-03-20T18:24:15.573Z,44.30
2019-03-20T18:26:44.987Z,44.30
2019-03-20T18:29:13.695Z,44.30
2019-03-20T18:31:46.257Z,44.40
2019-03-20T18:34:12.402Z,44.40
2019-03-20T18:36:41.124Z,44.40
2019-03-20T18:39:10.408Z,44.40
2019-03-20T18:41:39.497Z,44.40
2019-03-20T18:44:08.636Z,44.40
2019-03-20T18:46:37.352Z,44.40
2019-03-20T18:49:07.137Z,44.30
2019-03-20T18:51:36.828Z,44.30
2019-03-20T18:54:05.915Z,44.40
2019-03-20T18:56:35.863Z,44.40
2019-03-20T18:59:04.742Z,44.40
2019-03-20T19:01:33.720Z,44.40
2019-03-20T19:04:02.452Z,44.40
2019-03-20T19:06:31.580Z,44.40
2019-03-20T19:09:00.738Z,44.50
2019-03-20T19:11:30.205Z,44.50
2019-03-20T19:14:00.005Z,44.40
2019-03-20T19:16:29.288Z,44.40
2019-03-20T19:18:59.519Z,44.40
2019-03-20T19:21:28.644Z,44.50
2019-03-20T19:26:26.385Z,44.50
2019-03-20T19:28:55.203Z,44.50
2019-03-20T19:31:24.731Z,44.50
2019-03-20T19:33:54.124Z,44.50
2019-03-20T19:36:23.022Z,44.60
2019-03-20T19:38:52.477Z,44.60
2019-03-20T19:41:21.921Z,44.60
2019-03-20T19:43:51.724Z,44.70
2019-03-20T19:46:20.534Z,44.60
2019-03-20T19:48:50.076Z,44.60
2019-03-20T19:51:19.375Z,45.30
2019-03-20T19:53:50.320Z,44.70
2019-03-20T19:56:19.491Z,44.70
2019-03-20T19:58:48.179Z,44.60
2019-03-20T20:01:19.157Z,44.80
2019-03-20T20:03:49.204Z,44.80
2019-03-20T20:06:18.319Z,44.80
2019-03-20T20:08:47.259Z,44.80
2019-03-20T20:11:16.847Z,44.80
2019-03-20T20:13:46.119Z,44.80
2019-03-20T20:16:15.870Z,44.80
2019-03-20T20:18:44.648Z,44.80
2019-03-20T20:21:14.103Z,44.90
2019-03-20T20:23:43.619Z,44.90
2019-03-20T20:26:13.053Z,44.90
2019-03-20T20:28:42.623Z,44.90
2019-03-20T20:31:12.156Z,44.90
2019-03-20T20:33:40.906Z,45.00
2019-03-20T20:36:12.039Z,44.90
2019-03-20T20:38:41.064Z,44.80
2019-03-20T20:41:10.569Z,44.90
2019-03-20T20:43:40.018Z,44.90
2019-03-20T20:46:09.923Z,44.90
2019-03-20T20:48:38.639Z,45.00
2019-03-20T20:51:08.046Z,44.90
2019-03-20T20:53:36.917Z,44.90
2019-03-20T20:56:05.672Z,44.90
2019-03-20T20:58:35.070Z,44.90
2019-03-20T21:01:03.831Z,44.90
2019-03-20T21:03:33.415Z,44.80
2019-03-20T21:06:03.491Z,44.90
2019-03-20T21:08:32.589Z,45.50
2019-03-20T21:11:01.625Z,44.80
2019-03-20T21:13:31.490Z,44.80
2019-03-20T21:24:25.900Z,44.80
2019-03-20T21:29:13.143Z,44.70
2019-03-20T21:34:41.288Z,44.70
2019-03-20T21:38:24.232Z,44.90
2019-03-20T21:46:38.075Z,44.80
